createdAt,value
2023-02-07T00:01:15.106Z,102047.88
2023-02-07T00:03:42.244Z,102055.00
2023-02-07T00:06:11.368Z,102042.44
2023-02-07T00:08:40.496Z,102060.31
2023-02-07T00:11:09.429Z,102068.41
2023-02-07T00:13:36.817Z,102066.63
2023-02-07T00:16:05.621Z,102075.59
2023-02-07T00:18:33.327Z,102076.41
2023-02-07T00:21:00.905Z,102071.09
2023-02-07T00:23:27.774Z,102068.44
2023-02-07T00:25:58.338Z,102068.44
2023-02-07T00:28:25.138Z,102072.00
2023-02-07T00:31:01.890Z,102069.38
2023-02-07T00:33:28.457Z,102060.44
2023-02-07T00:35:57.795Z,102055.03
2023-02-07T00:38:24.825Z,102062.19
2023-02-07T00:40:51.338Z,102062.19
2023-02-07T00:43:29.426Z,102059.50
2023-02-07T00:45:56.949Z,102052.34
2023-02-07T00:48:23.641Z,102044.25
2023-02-07T00:50:50.311Z,102051.38
2023-02-07T00:53:16.791Z,102051.34
2023-02-07T00:55:43.415Z,102053.13
2023-02-07T00:58:09.942Z,102051.28
2023-02-07T01:00:38.373Z,102048.63
2023-02-07T01:03:05.096Z,102051.28
2023-02-07T01:05:32.129Z,102048.63
2023-02-07T01:07:58.678Z,102036.13
2023-02-07T01:10:25.230Z,102050.34
2023-02-07T01:12:52.222Z,102058.38
2023-02-07T01:15:19.183Z,102055.66
2023-02-07T01:17:47.036Z,102053.88
2023-02-07T01:20:15.244Z,102057.53
2023-02-07T01:22:41.790Z,102063.78
2023-02-07T01:25:09.572Z,102070.97
2023-02-07T01:27:36.553Z,102062.88
2023-02-07T01:30:05.334Z,102062.03
2023-02-07T01:32:32.771Z,102073.56
2023-02-07T01:35:00.695Z,102061.97
2023-02-07T01:37:27.763Z,102065.63
2023-02-07T01:39:54.446Z,102058.38
2023-02-07T01:42:24.535Z,102057.44
2023-02-07T01:45:05.373Z,102051.13
2023-02-07T01:47:33.774Z,102059.22
2023-02-07T01:50:02.759Z,102050.22
2023-02-07T01:52:33.548Z,102044.84
2023-02-07T01:55:02.738Z,102043.91
2023-02-07T01:57:30.436Z,102056.47
2023-02-07T01:59:58.485Z,102051.94
2023-02-07T02:02:28.690Z,102051.91
2023-02-07T02:04:57.558Z,102055.47
2023-02-07T02:07:26.934Z,102058.06
2023-02-07T02:09:53.647Z,102050.00
2023-02-07T02:12:34.401Z,102049.97
2023-02-07T02:15:14.717Z,102049.13
2023-02-07T02:17:55.084Z,102041.09
2023-02-07T02:20:59.178Z,102049.13
2023-02-07T02:23:41.393Z,102050.00
2023-02-07T02:26:56.103Z,102048.13
2023-02-07T02:29:45.546Z,102049.88
2023-02-07T02:32:48.763Z,102048.06
2023-02-07T02:35:21.966Z,102056.91
2023-02-07T02:37:55.175Z,102054.19
2023-02-07T02:40:29.503Z,102059.53
2023-02-07T02:43:00.717Z,102052.28
2023-02-07T02:45:30.344Z,102058.41
2023-02-07T02:47:58.937Z,102057.75
2023-02-07T02:50:27.857Z,102056.88
2023-02-07T02:52:54.610Z,102057.81
2023-02-07T02:55:36.379Z,102050.53
2023-02-07T02:58:11.234Z,102053.22
2023-02-07T03:00:47.278Z,102052.38
2023-02-07T03:03:35.187Z,102053.28
2023-02-07T03:06:12.284Z,102056.91
2023-02-07T03:08:45.776Z,102041.72
2023-02-07T03:11:15.793Z,102037.22
2023-02-07T03:13:58.906Z,102035.41
2023-02-07T03:16:31.120Z,102031.00
2023-02-07T03:19:06.696Z,102032.75
2023-02-07T03:21:37.566Z,102025.63
2023-02-07T03:24:08.376Z,102023.75
2023-02-07T03:26:36.035Z,102029.13
2023-02-07T03:29:04.933Z,102018.28
2023-02-07T03:31:33.730Z,102021.69
2023-02-07T03:34:08.750Z,102030.81
2023-02-07T03:36:41.688Z,102033.50
2023-02-07T03:39:08.263Z,102038.03
2023-02-07T03:41:41.889Z,102034.44
2023-02-07T03:44:10.839Z,102031.75
2023-02-07T03:46:40.320Z,102038.94
2023-02-07T03:49:08.440Z,102046.94
2023-02-07T03:51:35.548Z,102049.63
2023-02-07T03:54:02.051Z,102034.38
2023-02-07T03:56:28.501Z,102032.47
2023-02-07T03:58:55.146Z,102050.31
2023-02-07T04:01:22.125Z,102036.16
2023-02-07T04:03:48.618Z,102038.81
2023-02-07T04:06:17.107Z,102035.31
2023-02-07T04:08:43.677Z,102034.38
2023-02-07T04:11:10.272Z,102036.19
2023-02-07T04:13:37.077Z,102036.22
2023-02-07T04:16:05.065Z,102034.41
2023-02-07T04:18:31.626Z,102027.28
2023-02-07T04:21:02.248Z,102027.28
2023-02-07T04:23:30.462Z,102027.28
2023-02-07T04:25:57.224Z,102033.47
2023-02-07T04:28:23.859Z,102025.34
2023-02-07T04:30:50.395Z,102028.00
2023-02-07T04:33:16.979Z,102028.00
2023-02-07T04:35:43.577Z,102019.94
2023-02-07T04:38:10.209Z,102032.38
2023-02-07T04:40:38.902Z,102019.75
2023-02-07T04:43:06.313Z,102010.94
2023-02-07T04:45:32.763Z,102002.78
2023-02-07T04:47:59.638Z,102005.59
2023-02-07T04:50:26.124Z,102007.38
2023-02-07T04:52:52.717Z,102020.63
2023-02-07T04:55:19.324Z,102015.97
2023-02-07T04:57:47.160Z,102017.97
2023-02-07T05:00:14.351Z,102009.91
2023-02-07T05:02:40.910Z,102016.97
2023-02-07T05:05:08.091Z,102020.53
2023-02-07T05:07:34.703Z,102007.28
2023-02-07T05:10:01.184Z,102013.41
2023-02-07T05:12:27.649Z,102012.50
2023-02-07T05:14:55.750Z,102020.50
2023-02-07T05:17:22.833Z,102018.69
2023-02-07T05:19:49.267Z,102010.56
2023-02-07T05:22:15.876Z,102011.44
2023-02-07T05:24:42.450Z,102006.88
2023-02-07T05:27:08.889Z,101998.84
2023-02-07T05:29:35.397Z,101993.34
2023-02-07T05:32:04.721Z,101999.75
2023-02-07T05:34:32.753Z,101994.31
2023-02-07T05:36:59.432Z,101997.81
2023-02-07T05:39:28.053Z,102003.19
2023-02-07T05:41:54.590Z,101998.75
2023-02-07T05:44:21.303Z,102009.53
2023-02-07T05:46:47.778Z,102003.31
2023-02-07T05:49:16.578Z,102002.38
2023-02-07T05:51:43.165Z,102008.63
2023-02-07T05:54:09.669Z,102011.22
2023-02-07T05:56:36.091Z,102009.50
2023-02-07T05:59:02.896Z,102017.44
2023-02-07T06:01:29.520Z,102019.25
2023-02-07T06:03:56.550Z,102014.47
2023-02-07T06:06:24.536Z,102022.75
2023-02-07T06:08:51.056Z,102027.09
2023-02-07T06:11:17.548Z,102028.69
2023-02-07T06:13:44.276Z,102030.47
2023-02-07T06:16:10.989Z,102026.25
2023-02-07T06:18:37.618Z,102021.81
2023-02-07T06:21:04.984Z,102029.69
2023-02-07T06:23:32.927Z,102031.50
2023-02-07T06:25:59.835Z,102032.16
2023-02-07T06:28:26.590Z,102036.31
2023-02-07T06:30:53.592Z,102042.81
2023-02-07T06:33:20.446Z,102041.84
2023-02-07T06:35:47.361Z,102050.66
2023-02-07T06:38:15.250Z,102058.59
2023-02-07T06:40:50.042Z,102047.00
2023-02-07T06:43:17.576Z,102062.13
2023-02-07T06:45:44.824Z,102062.22
2023-02-07T06:48:12.544Z,102048.63
2023-02-07T06:50:42.227Z,102050.47
2023-02-07T06:53:15.482Z,102058.56
2023-02-07T06:59:54.696Z,102058.75
2023-02-07T07:02:34.366Z,102066.91
2023-02-07T07:05:10.943Z,102074.09
2023-02-07T07:07:37.410Z,102082.44
2023-02-07T07:10:05.015Z,102079.81
2023-02-07T07:12:33.311Z,102079.53
2023-02-07T07:14:59.809Z,102094.44
2023-02-07T07:17:30.442Z,102096.38
2023-02-07T07:19:57.131Z,102091.97
2023-02-07T07:22:23.909Z,102092.81
2023-02-07T07:24:52.155Z,102089.16
2023-02-07T07:27:21.862Z,102096.78
2023-02-07T07:29:50.775Z,102103.09
2023-02-07T07:32:32.292Z,102101.44
2023-02-07T07:35:00.099Z,102106.38
2023-02-07T07:37:28.415Z,102102.94
2023-02-07T07:43:28.316Z,102108.47
2023-02-07T07:45:59.877Z,102108.88
2023-02-07T07:48:27.301Z,102110.06
2023-02-07T07:51:43.625Z,102120.81
2023-02-07T07:54:18.326Z,102113.78
2023-02-07T07:56:45.613Z,102116.66
2023-02-07T07:59:23.643Z,102116.66
2023-02-07T08:01:58.023Z,102115.84
2023-02-07T08:04:46.643Z,102120.38
2023-02-07T08:07:21.169Z,102112.28
2023-02-07T08:09:49.563Z,102108.72
2023-02-07T08:15:19.686Z,102111.41
2023-02-07T08:21:21.947Z,102100.59
2023-02-07T08:23:50.624Z,102110.47
2023-02-07T08:26:17.730Z,102106.03
2023-02-07T08:28:49.710Z,102111.41
2023-02-07T08:31:18.942Z,102112.22
2023-02-07T08:33:48.072Z,102101.44
2023-02-07T08:36:16.258Z,102098.75
2023-02-07T08:38:42.981Z,102100.47
2023-02-07T08:41:09.502Z,102094.16
2023-02-07T08:43:36.068Z,102095.81
2023-02-07T08:46:03.574Z,102086.16
2023-02-07T08:48:30.241Z,102096.00
2023-02-07T08:51:03.655Z,102099.56
2023-02-07T08:53:32.328Z,102098.50
2023-02-07T08:55:59.150Z,102096.78
2023-02-07T08:58:26.131Z,102099.31
2023-02-07T09:00:55.218Z,102096.53
2023-02-07T09:03:23.879Z,102095.38
2023-02-07T09:05:51.044Z,102099.06
2023-02-07T09:08:18.388Z,102089.00
2023-02-07T09:10:50.980Z,102094.22
2023-02-07T09:13:18.722Z,102101.41
2023-02-07T09:15:46.512Z,102090.88
2023-02-07T09:18:13.349Z,102097.03
2023-02-07T09:20:40.351Z,102091.50
2023-02-07T09:23:09.937Z,102094.13
2023-02-07T09:25:38.948Z,102086.97
2023-02-07T09:28:07.802Z,102090.78
2023-02-07T09:30:35.783Z,102090.81
2023-02-07T09:33:03.705Z,102093.53
2023-02-07T09:35:31.375Z,102088.22
2023-02-07T09:38:01.192Z,102087.41
2023-02-07T09:40:31.902Z,102073.91
2023-02-07T09:43:38.363Z,102078.41
2023-02-07T09:46:13.945Z,102086.47
2023-02-07T09:48:48.329Z,102087.38
2023-02-07T09:51:19.333Z,102086.56
2023-02-07T09:53:51.095Z,102085.66
2023-02-07T09:56:21.896Z,102083.88
2023-02-07T09:58:55.511Z,102087.41
2023-02-07T10:04:38.910Z,102094.63
2023-02-07T10:07:06.926Z,102090.22
2023-02-07T10:09:39.906Z,102090.88
2023-02-07T10:12:28.375Z,102099.00
2023-02-07T10:15:30.937Z,102092.72
2023-02-07T10:18:21.688Z,102092.53
2023-02-07T10:20:54.698Z,102083.66
2023-02-07T10:23:39.788Z,102095.25
2023-02-07T10:26:16.644Z,102094.34
2023-02-07T10:32:15.314Z,102085.22
2023-02-07T10:35:02.731Z,102069.00
2023-02-07T10:37:37.139Z,102078.06
2023-02-07T10:40:08.030Z,102080.06
2023-02-07T10:42:37.615Z,102092.50
2023-02-07T10:45:08.575Z,102098.00
2023-02-07T10:47:40.078Z,102094.47
2023-02-07T10:50:29.382Z,102081.66
2023-02-07T10:52:58.216Z,102091.72
2023-02-07T10:55:49.326Z,102085.13
2023-02-07T10:58:38.981Z,102067.06
2023-02-07T11:01:22.861Z,102085.16
2023-02-07T11:03:54.557Z,102079.53
2023-02-07T11:06:27.423Z,102071.47
2023-02-07T11:09:15.568Z,102079.00
2023-02-07T11:11:56.135Z,102082.44
2023-02-07T11:14:25.636Z,102071.50
2023-02-07T11:16:53.536Z,102069.84
2023-02-07T11:20:06.081Z,102085.16
2023-02-07T11:26:48.465Z,102083.03
2023-02-07T11:29:21.567Z,102073.09
2023-02-07T11:35:33.642Z,102070.41
2023-02-07T11:38:04.609Z,102070.22
2023-02-07T11:40:37.856Z,102068.44
2023-02-07T11:43:12.502Z,102066.09
2023-02-07T11:45:44.674Z,102057.59
2023-02-07T11:48:19.375Z,102053.09
2023-02-07T11:50:52.264Z,102055.97
2023-02-07T11:53:22.510Z,102059.31
2023-02-07T11:55:49.434Z,102057.59
2023-02-07T11:58:23.492Z,102056.56
2023-02-07T12:00:54.416Z,102057.47
2023-02-07T12:03:23.598Z,102060.41
2023-02-07T12:05:53.739Z,102060.72
2023-02-07T12:08:22.712Z,102054.38
2023-02-07T12:11:38.705Z,102054.00
2023-02-07T12:14:13.220Z,102055.03
2023-02-07T12:16:47.858Z,102046.81
2023-02-07T12:19:19.418Z,102046.69
2023-02-07T12:21:54.789Z,102044.03
2023-02-07T12:24:25.022Z,102041.94
2023-02-07T12:26:58.049Z,102040.78
2023-02-07T12:29:35.888Z,102041.69
2023-02-07T12:32:10.868Z,102047.78
2023-02-07T12:38:24.139Z,102029.16
2023-02-07T12:55:19.101Z,102020.91
2023-02-07T12:57:56.270Z,102020.56
2023-02-07T13:00:31.495Z,102003.44
2023-02-07T13:03:25.689Z,102016.75
2023-02-07T13:06:09.834Z,102011.84
2023-02-07T13:08:48.764Z,101996.38
2023-02-07T13:11:27.569Z,102009.97
2023-02-07T13:14:06.140Z,102004.88
2023-02-07T13:17:12.752Z,102003.22
2023-02-07T13:19:47.763Z,102004.72
2023-02-07T13:22:29.449Z,102004.72
2023-02-07T13:24:56.761Z,102005.63
2023-02-07T13:27:26.829Z,102005.88
2023-02-07T13:29:53.953Z,102001.06
2023-02-07T13:32:23.082Z,101996.44
2023-02-07T13:34:55.326Z,101983.59
2023-02-07T13:37:27.800Z,101983.69
2023-02-07T13:40:02.150Z,101984.34
2023-02-07T13:42:37.793Z,101982.53
2023-02-07T13:45:13.708Z,101978.81
2023-02-07T13:47:48.895Z,101994.00
2023-02-07T13:50:25.305Z,101992.50
2023-02-07T13:52:57.647Z,101979.50
2023-02-07T13:55:30.854Z,101980.81
2023-02-07T13:57:58.863Z,101974.75
2023-02-07T14:00:27.036Z,101983.69
2023-02-07T14:02:58.736Z,101983.22
2023-02-07T14:05:28.571Z,101974.25
2023-02-07T14:07:58.165Z,101962.59
2023-02-07T14:10:49.709Z,101960.75
2023-02-07T14:13:31.846Z,101965.13
2023-02-07T14:16:02.065Z,101976.78
2023-02-07T14:18:51.362Z,101969.69
2023-02-07T14:21:42.737Z,101963.28
2023-02-07T14:24:32.111Z,101974.00
2023-02-07T14:27:05.369Z,101968.78
2023-02-07T14:30:20.488Z,101975.09
2023-02-07T14:33:12.431Z,101972.38
2023-02-07T14:36:02.312Z,101972.22
2023-02-07T14:38:36.228Z,101960.84
2023-02-07T14:41:10.518Z,101970.56
2023-02-07T14:43:50.568Z,101969.69
2023-02-07T14:46:28.649Z,101963.44
2023-02-07T14:49:01.372Z,101966.94
2023-02-07T14:51:40.277Z,101961.53
2023-02-07T14:54:15.718Z,101959.06
2023-02-07T14:56:51.829Z,101967.19
2023-02-07T14:59:27.436Z,101966.19
2023-02-07T15:01:56.527Z,101960.84
2023-02-07T15:04:23.207Z,101962.03
2023-02-07T15:06:51.230Z,101962.09
2023-02-07T15:09:26.164Z,101965.59
2023-02-07T15:12:04.857Z,101971.03
2023-02-07T15:14:39.474Z,101959.19
2023-02-07T15:17:07.836Z,101962.72
2023-02-07T15:19:37.115Z,101960.38
2023-02-07T15:22:14.224Z,101955.84
2023-02-07T15:24:52.123Z,101945.81
2023-02-07T15:27:22.826Z,101951.25
2023-02-07T15:29:57.065Z,101955.72
2023-02-07T15:32:46.368Z,101954.03
2023-02-07T15:36:03.332Z,101957.44
2023-02-07T15:38:30.531Z,101960.19
2023-02-07T15:41:00.354Z,101956.56
2023-02-07T15:43:30.564Z,101964.56
2023-02-07T15:46:10.547Z,101958.16
2023-02-07T15:48:50.298Z,101963.59
2023-02-07T15:51:23.354Z,101960.19
2023-02-07T15:53:52.271Z,101968.38
2023-02-07T15:56:19.402Z,101955.69
2023-02-07T15:58:57.232Z,101956.72
2023-02-07T16:01:27.043Z,101958.59
2023-02-07T16:03:58.682Z,101951.56
2023-02-07T16:13:45.442Z,101959.09
2023-02-07T16:16:35.947Z,101963.75
2023-02-07T16:22:44.937Z,101954.97
2023-02-07T16:25:48.468Z,101978.53
2023-02-07T16:32:18.570Z,101966.06
2023-02-07T16:35:17.752Z,101967.03
2023-02-07T16:37:47.911Z,101967.16
2023-02-07T16:40:30.983Z,101973.44
2023-02-07T16:43:41.085Z,101976.34
2023-02-07T16:46:28.097Z,101984.59
2023-02-07T16:49:49.552Z,101976.66
2023-02-07T17:05:52.725Z,101997.84
2023-02-07T17:08:37.104Z,101999.81
2023-02-07T17:11:14.468Z,102014.06
2023-02-07T17:14:28.687Z,101996.06
2023-02-07T17:17:04.168Z,102005.06
2023-02-07T17:23:35.401Z,102011.50
2023-02-07T17:26:02.321Z,102022.31
2023-02-07T17:28:30.518Z,102025.00
2023-02-07T17:31:22.089Z,102025.84
2023-02-07T17:41:26.456Z,102009.81
2023-02-07T17:44:03.006Z,102017.00
2023-02-07T18:00:05.150Z,102028.78
2023-02-07T18:02:47.642Z,102030.56
2023-02-07T18:05:26.351Z,102023.41
2023-02-07T18:07:58.517Z,102021.63
2023-02-07T18:10:29.452Z,102037.78
2023-02-07T18:13:11.561Z,102027.91
2023-02-07T18:15:49.325Z,102025.22
2023-02-07T18:18:19.543Z,102029.72
2023-02-07T18:21:34.912Z,102032.41
2023-02-07T18:24:04.676Z,102016.25
2023-02-07T18:26:36.453Z,102018.94
2023-02-07T18:29:07.331Z,102021.63
2023-02-07T18:31:47.601Z,102032.41
2023-02-07T18:34:25.386Z,102021.66
2023-02-07T18:36:53.468Z,102029.72
2023-02-07T18:42:50.297Z,102032.41
2023-02-07T18:45:22.144Z,102020.78
2023-02-07T18:48:16.528Z,102002.84
2023-02-07T18:50:45.603Z,102007.28
2023-02-07T18:53:21.288Z,102001.94
2023-02-07T18:55:59.918Z,102018.97
2023-02-07T18:59:00.352Z,102006.41
2023-02-07T19:01:58.653Z,102010.91
2023-02-07T19:08:48.100Z,102004.66
2023-02-07T19:15:27.823Z,102018.09
2023-02-07T19:17:54.578Z,102015.41
2023-02-07T19:20:21.261Z,102020.75
2023-02-07T19:22:52.366Z,102011.81
2023-02-07T19:25:20.071Z,102007.31
2023-02-07T19:27:47.368Z,101998.34
2023-02-07T19:30:14.285Z,102001.91
2023-02-07T19:32:42.056Z,102015.38
2023-02-07T19:35:08.621Z,102009.09
2023-02-07T19:37:37.350Z,102020.72
2023-02-07T19:40:06.376Z,102010.88
2023-02-07T19:42:32.948Z,102010.84
2023-02-07T19:44:59.598Z,102016.25
2023-02-07T19:47:26.213Z,102002.78
2023-02-07T19:49:52.976Z,102008.16
2023-02-07T19:52:56.265Z,101993.78
2023-02-07T19:55:26.186Z,101979.44
2023-02-07T19:57:53.376Z,102005.41
2023-02-07T20:00:20.486Z,101977.59
2023-02-07T20:02:47.047Z,101989.25
2023-02-07T20:05:13.995Z,102007.22
2023-02-07T20:07:40.647Z,102004.50
2023-02-07T20:10:08.158Z,101991.94
2023-02-07T20:12:36.402Z,102007.19
2023-02-07T20:15:03.243Z,102005.38
2023-02-07T20:17:29.912Z,101997.31
2023-02-07T20:19:56.459Z,102002.69
2023-02-07T20:22:23.423Z,101998.19
2023-02-07T20:24:50.014Z,102004.47
2023-02-07T20:27:16.576Z,102004.47
2023-02-07T20:29:44.553Z,101997.28
2023-02-07T20:32:11.188Z,102008.06
2023-02-07T20:34:37.896Z,102008.06
2023-02-07T20:37:04.524Z,102004.44
2023-02-07T20:39:31.102Z,102008.03
2023-02-07T20:41:57.677Z,102007.09
2023-02-07T20:44:24.379Z,101997.22
2023-02-07T20:46:53.111Z,102006.16
2023-02-07T20:49:21.643Z,102010.66
2023-02-07T20:51:49.872Z,102003.47
2023-02-07T20:54:18.018Z,101999.00
2023-02-07T20:57:01.926Z,102004.38
2023-02-07T21:00:11.071Z,102002.59
2023-02-07T21:03:27.863Z,102007.09
2023-02-07T21:06:35.284Z,101984.66
2023-02-07T21:09:56.608Z,101994.50
2023-02-07T21:12:51.597Z,101972.06
2023-02-07T21:16:03.029Z,101990.94
2023-02-07T21:22:31.192Z,101981.09
2023-02-07T21:24:57.804Z,101999.97
2023-02-07T21:27:24.410Z,102000.84
2023-02-07T21:29:50.933Z,102010.69
2023-02-07T21:32:17.452Z,102001.75
2023-02-07T21:34:45.487Z,102000.78
2023-02-07T21:37:12.413Z,101994.53
2023-02-07T21:39:39.175Z,102006.16
2023-02-07T21:42:05.928Z,101997.22
2023-02-07T21:44:55.510Z,101990.94
2023-02-07T21:47:22.480Z,102000.78
2023-02-07T21:53:14.308Z,101993.59
2023-02-07T21:55:40.922Z,101989.09
2023-02-07T21:58:10.032Z,101989.97
2023-02-07T22:00:36.827Z,101986.38
2023-02-07T22:03:04.167Z,101988.16
2023-02-07T22:05:32.831Z,101985.47
2023-02-07T22:08:03.405Z,101997.94
2023-02-07T22:10:30.203Z,101991.69
2023-02-07T22:12:57.006Z,101993.41
2023-02-07T22:15:24.157Z,102002.44
2023-02-07T22:17:54.230Z,101993.50
2023-02-07T22:21:01.460Z,101979.13
2023-02-07T22:23:28.774Z,101982.75
2023-02-07T22:25:55.883Z,101989.97
2023-02-07T22:28:24.251Z,101991.78
2023-02-07T22:30:51.045Z,101976.56
2023-02-07T22:33:24.607Z,101996.28
2023-02-07T22:35:56.712Z,102000.75
2023-02-07T22:38:25.714Z,101992.66
2023-02-07T22:40:54.115Z,101993.53
2023-02-07T22:43:21.035Z,101996.25
2023-02-07T22:45:52.893Z,101987.25
2023-02-07T22:48:19.644Z,101991.72
2023-02-07T22:50:48.017Z,101997.06
2023-02-07T22:53:17.701Z,101992.56
2023-02-07T22:55:44.239Z,102001.59
2023-02-07T22:58:14.631Z,101994.41
2023-02-07T23:00:42.012Z,102008.75
2023-02-07T23:03:08.745Z,102003.34
2023-02-07T23:05:37.025Z,102000.66
2023-02-07T23:08:07.060Z,101999.75
2023-02-07T23:10:34.899Z,101985.38
2023-02-07T23:13:01.794Z,101992.63
2023-02-07T23:15:29.468Z,101990.81
2023-02-07T23:17:56.709Z,101986.34
2023-02-07T23:20:23.388Z,101995.34
2023-02-07T23:22:49.966Z,101982.78
2023-02-07T23:25:16.747Z,101989.06
2023-02-07T23:27:45.057Z,101986.41
2023-02-07T23:30:19.140Z,101989.97
2023-02-07T23:32:45.820Z,102003.41
2023-02-07T23:35:14.938Z,102005.19
2023-02-07T23:38:00.821Z,101998.00
2023-02-07T23:40:33.273Z,102013.25
2023-02-07T23:43:21.381Z,101998.91
2023-02-07T23:45:47.884Z,102002.50
2023-02-07T23:48:57.017Z,101990.78
2023-02-07T23:51:26.345Z,101989.91
2023-02-07T23:53:54.888Z,102004.31
2023-02-07T23:56:27.780Z,101999.78
